sensor_id;sensor_type;location;lat;lon;timestamp;temperature;humidity
41694;DHT22;27377;50.666;9.150;2024-01-10T00:00:32;-6.60;99.90
41694;DHT22;27377;50.666;9.150;2024-01-10T00:02:58;-6.60;99.90
41694;DHT22;27377;50.666;9.150;2024-01-10T00:05:24;-6.60;99.90
41694;DHT22;27377;50.666;9.150;2024-01-10T00:07:49;-6.60;99.90
41694;DHT22;27377;50.666;9.150;2024-01-10T00:10:15;-6.60;99.90
41694;DHT22;27377;50.666;9.150;2024-01-10T00:12:40;-6.60;99.90
41694;DHT22;27377;50.666;9.150;2024-01-10T00:15:12;-6.60;99.90
41694;DHT22;27377;50.666;9.150;2024-01-10T00:17:38;-6.60;99.90
41694;DHT22;27377;50.666;9.150;2024-01-10T00:20:08;-6.50;99.90
41694;DHT22;27377;50.666;9.150;2024-01-10T00:22:36;-6.50;99.90
41694;DHT22;27377;50.666;9.150;2024-01-10T00:25:02;-6.50;99.90
41694;DHT22;27377;50.666;9.150;2024-01-10T00:27:30;-6.60;99.90
41694;DHT22;27377;50.666;9.150;2024-01-10T00:29:59;-6.60;99.90
41694;DHT22;27377;50.666;9.150;2024-01-10T00:32:28;-6.60;99.90
41694;DHT22;27377;50.666;9.150;2024-01-10T00:34:57;-6.60;99.90
41694;DHT22;27377;50.666;9.150;2024-01-10T00:37:29;-6.60;99.90
41694;DHT22;27377;50.666;9.150;2024-01-10T00:39:58;-6.60;99.90
41694;DHT22;27377;50.666;9.150;2024-01-10T00:42:24;-6.70;99.90
41694;DHT22;27377;50.666;9.150;2024-01-10T00:44:53;-6.70;99.90
41694;DHT22;27377;50.666;9.150;2024-01-10T00:47:21;-6.70;99.90
41694;DHT22;27377;50.666;9.150;2024-01-10T00:49:47;-6.80;99.90
41694;DHT22;27377;50.666;9.150;2024-01-10T00:52:13;-6.80;99.90
41694;DHT22;27377;50.666;9.150;2024-01-10T00:54:38;-6.80;99.90
41694;DHT22;27377;50.666;9.150;2024-01-10T00:57:07;-6.80;99.90
41694;DHT22;27377;50.666;9.150;2024-01-10T00:59:33;-6.80;99.90
41694;DHT22;27377;50.666;9.150;2024-01-10T01:02:01;-6.80;99.90
41694;DHT22;27377;50.666;9.150;2024-01-10T01:04:27;-6.80;99.90
41694;DHT22;27377;50.666;9.150;2024-01-10T01:06:53;-6.90;99.90
41694;DHT22;27377;50.666;9.150;2024-01-10T01:09:22;-7.00;99.90
41694;DHT22;27377;50.666;9.150;2024-01-10T01:11:48;-7.00;99.90
41694;DHT22;27377;50.666;9.150;2024-01-10T01:14:13;-7.00;99.90
41694;DHT22;27377;50.666;9.150;2024-01-10T01:16:39;-6.90;99.90
41694;DHT22;27377;50.666;9.150;2024-01-10T01:19:07;-6.90;99.90
41694;DHT22;27377;50.666;9.150;2024-01-10T01:21:33;-7.00;99.90
41694;DHT22;27377;50.666;9.150;2024-01-10T01:23:58;-6.90;99.90
41694;DHT22;27377;50.666;9.150;2024-01-10T01:26:24;-6.90;99.90
41694;DHT22;27377;50.666;9.150;2024-01-10T01:28:49;-6.90;99.90
41694;DHT22;27377;50.666;9.150;2024-01-10T01:31:15;-7.00;99.90
41694;DHT22;27377;50.666;9.150;2024-01-10T01:33:44;-7.10;99.90
41694;DHT22;27377;50.666;9.150;2024-01-10T01:36:09;-7.10;99.90
41694;DHT22;27377;50.666;9.150;2024-01-10T01:38:35;-7.20;99.90
41694;DHT22;27377;50.666;9.150;2024-01-10T01:41:01;-7.20;99.90
41694;DHT22;27377;50.666;9.150;2024-01-10T01:43:30;-7.20;99.90
41694;DHT22;27377;50.666;9.150;2024-01-10T01:45:56;-7.20;99.90
41694;DHT22;27377;50.666;9.150;2024-01-10T01:48:23;-7.10;99.90
41694;DHT22;27377;50.666;9.150;2024-01-10T01:50:52;-7.00;99.90
41694;DHT22;27377;50.666;9.150;2024-01-10T01:53:19;-7.10;99.90
41694;DHT22;27377;50.666;9.150;2024-01-10T01:55:47;-7.20;99.90
41694;DHT22;27377;50.666;9.150;2024-01-10T01:58:14;-7.20;99.90
41694;DHT22;27377;50.666;9.150;2024-01-10T02:00:39;-7.20;99.90
41694;DHT22;27377;50.666;9.150;2024-01-10T02:03:09;-7.20;99.90
41694;DHT22;27377;50.666;9.150;2024-01-10T02:05:41;-7.20;99.90
41694;DHT22;27377;50.666;9.150;2024-01-10T02:08:08;-7.20;99.90
41694;DHT22;27377;50.666;9.150;2024-01-10T02:10:36;-7.20;99.90
41694;DHT22;27377;50.666;9.150;2024-01-10T02:13:02;-7.20;99.90
41694;DHT22;27377;50.666;9.150;2024-01-10T02:15:27;-7.20;99.90
41694;DHT22;27377;50.666;9.150;2024-01-10T02:17:56;-7.20;99.90
41694;DHT22;27377;50.666;9.150;2024-01-10T02:20:22;-7.10;99.90
41694;DHT22;27377;50.666;9.150;2024-01-10T02:22:48;-7.00;99.90
41694;DHT22;27377;50.666;9.150;2024-01-10T02:25:16;-7.10;99.90
41694;DHT22;27377;50.666;9.150;2024-01-10T02:27:41;-7.20;99.90
41694;DHT22;27377;50.666;9.150;2024-01-10T02:30:08;-7.30;99.90
41694;DHT22;27377;50.666;9.150;2024-01-10T02:32:37;-7.30;99.90
41694;DHT22;27377;50.666;9.150;2024-01-10T02:35:03;-7.30;99.90
41694;DHT22;27377;50.666;9.150;2024-01-10T02:37:31;-7.30;99.90
41694;DHT22;27377;50.666;9.150;2024-01-10T02:39:57;-7.30;99.90
41694;DHT22;27377;50.666;9.150;2024-01-10T02:42:23;-7.30;99.90
41694;DHT22;27377;50.666;9.150;2024-01-10T02:44:48;-7.40;99.90
41694;DHT22;27377;50.666;9.150;2024-01-10T02:47:14;-7.40;99.90
41694;DHT22;27377;50.666;9.150;2024-01-10T02:49:40;-7.40;99.90
41694;DHT22;27377;50.666;9.150;2024-01-10T02:52:06;-7.40;99.90
41694;DHT22;27377;50.666;9.150;2024-01-10T02:54:35;-7.40;99.90
41694;DHT22;27377;50.666;9.150;2024-01-10T02:57:00;-7.30;99.90
41694;DHT22;27377;50.666;9.150;2024-01-10T02:59:26;-7.40;99.90
41694;DHT22;27377;50.666;9.150;2024-01-10T03:01:55;-7.40;99.90
41694;DHT22;27377;50.666;9.150;2024-01-10T03:04:20;-7.50;99.90
41694;DHT22;27377;50.666;9.150;2024-01-10T03:06:46;-7.50;99.90
41694;DHT22;27377;50.666;9.150;2024-01-10T03:09:11;-7.50;99.90
41694;DHT22;27377;50.666;9.150;2024-01-10T03:11:37;-7.50;99.90
41694;DHT22;27377;50.666;9.150;2024-01-10T03:14:12;-7.50;99.90
41694;DHT22;27377;50.666;9.150;2024-01-10T03:16:38;-7.40;99.90
41694;DHT22;27377;50.666;9.150;2024-01-10T03:19:04;-7.40;99.90
41694;DHT22;27377;50.666;9.150;2024-01-10T03:21:29;-7.50;99.90
41694;DHT22;27377;50.666;9.150;2024-01-10T03:23:56;-7.50;99.90
41694;DHT22;27377;50.666;9.150;2024-01-10T03:26:25;-7.50;99.90
41694;DHT22;27377;50.666;9.150;2024-01-10T03:28:52;-7.60;99.90
41694;DHT22;27377;50.666;9.150;2024-01-10T03:31:17;-7.60;99.90
41694;DHT22;27377;50.666;9.150;2024-01-10T03:33:43;-7.60;99.90
41694;DHT22;27377;50.666;9.150;2024-01-10T03:36:11;-7.50;99.90
41694;DHT22;27377;50.666;9.150;2024-01-10T03:38:37;-7.50;99.90
41694;DHT22;27377;50.666;9.150;2024-01-10T03:41:03;-7.50;99.90
41694;DHT22;27377;50.666;9.150;2024-01-10T03:43:28;-7.40;99.90
41694;DHT22;27377;50.666;9.150;2024-01-10T03:45:54;-7.60;99.90
41694;DHT22;27377;50.666;9.150;2024-01-10T03:48:20;-7.60;99.90
41694;DHT22;27377;50.666;9.150;2024-01-10T03:50:45;-7.60;99.90
41694;DHT22;27377;50.666;9.150;2024-01-10T03:53:11;-7.60;99.90
41694;DHT22;27377;50.666;9.150;2024-01-10T03:55:36;-7.60;99.90
41694;DHT22;27377;50.666;9.150;2024-01-10T03:58:02;-7.60;99.90
41694;DHT22;27377;50.666;9.150;2024-01-10T04:00:28;-7.60;99.90
41694;DHT22;27377;50.666;9.150;2024-01-10T04:02:53;-7.50;99.90
41694;DHT22;27377;50.666;9.150;2024-01-10T04:05:19;-7.50;99.90
41694;DHT22;27377;50.666;9.150;2024-01-10T04:07:46;-7.50;99.90
41694;DHT22;27377;50.666;9.150;2024-01-10T04:10:12;-7.50;99.90
41694;DHT22;27377;50.666;9.150;2024-01-10T04:12:40;-7.50;99.90
41694;DHT22;27377;50.666;9.150;2024-01-10T04:15:06;-7.50;99.90
41694;DHT22;27377;50.666;9.150;2024-01-10T04:17:32;-7.50;99.90
41694;DHT22;27377;50.666;9.150;2024-01-10T04:19:58;-7.50;99.90
41694;DHT22;27377;50.666;9.150;2024-01-10T04:22:24;-7.50;99.90
41694;DHT22;27377;50.666;9.150;2024-01-10T04:24:50;-7.50;99.90
41694;DHT22;27377;50.666;9.150;2024-01-10T04:27:15;-7.50;99.90
41694;DHT22;27377;50.666;9.150;2024-01-10T04:29:41;-7.50;99.90
41694;DHT22;27377;50.666;9.150;2024-01-10T04:32:07;-7.50;99.90
41694;DHT22;27377;50.666;9.150;2024-01-10T04:34:32;-7.60;99.90
41694;DHT22;27377;50.666;9.150;2024-01-10T04:36:58;-7.60;99.90
41694;DHT22;27377;50.666;9.150;2024-01-10T04:39:23;-7.60;99.90
41694;DHT22;27377;50.666;9.150;2024-01-10T04:41:49;-7.60;99.90
41694;DHT22;27377;50.666;9.150;2024-01-10T04:44:15;-7.60;99.90
41694;DHT22;27377;50.666;9.150;2024-01-10T04:46:40;-7.60;99.90
41694;DHT22;27377;50.666;9.150;2024-01-10T04:49:07;-7.60;99.90
41694;DHT22;27377;50.666;9.150;2024-01-10T04:51:33;-7.60;99.90
41694;DHT22;27377;50.666;9.150;2024-01-10T04:53:58;-7.60;99.90
41694;DHT22;27377;50.666;9.150;2024-01-10T04:56:25;-7.70;99.90
41694;DHT22;27377;50.666;9.150;2024-01-10T04:58:50;-7.70;99.90
41694;DHT22;27377;50.666;9.150;2024-01-10T05:01:16;-7.70;99.90
41694;DHT22;27377;50.666;9.150;2024-01-10T05:03:41;-7.70;99.90
41694;DHT22;27377;50.666;9.150;2024-01-10T05:06:07;-7.70;99.90
41694;DHT22;27377;50.666;9.150;2024-01-10T05:08:32;-7.70;99.90
41694;DHT22;27377;50.666;9.150;2024-01-10T05:10:58;-7.80;99.90
41694;DHT22;27377;50.666;9.150;2024-01-10T05:13:24;-7.80;99.90
41694;DHT22;27377;50.666;9.150;2024-01-10T05:15:49;-7.80;99.90
41694;DHT22;27377;50.666;9.150;2024-01-10T05:18:15;-7.70;99.90
41694;DHT22;27377;50.666;9.150;2024-01-10T05:20:41;-7.60;99.90
41694;DHT22;27377;50.666;9.150;2024-01-10T05:23:07;-7.60;99.90
41694;DHT22;27377;50.666;9.150;2024-01-10T05:25:32;-7.60;99.90
41694;DHT22;27377;50.666;9.150;2024-01-10T05:27:58;-7.70;99.90
41694;DHT22;27377;50.666;9.150;2024-01-10T05:34:05;-7.70;99.90
41694;DHT22;27377;50.666;9.150;2024-01-10T05:47:33;-7.60;99.90
41694;DHT22;27377;50.666;9.150;2024-01-10T05:49:58;-7.60;99.90
41694;DHT22;27377;50.666;9.150;2024-01-10T05:52:24;-7.60;99.90
41694;DHT22;27377;50.666;9.150;2024-01-10T05:54:50;-7.60;99.90
41694;DHT22;27377;50.666;9.150;2024-01-10T05:57:15;-7.60;99.90
41694;DHT22;27377;50.666;9.150;2024-01-10T05:59:41;-7.70;99.90
41694;DHT22;27377;50.666;9.150;2024-01-10T06:02:06;-7.70;99.90
41694;DHT22;27377;50.666;9.150;2024-01-10T06:04:32;-7.60;99.90
41694;DHT22;27377;50.666;9.150;2024-01-10T06:07:01;-7.60;99.90
41694;DHT22;27377;50.666;9.150;2024-01-10T06:09:27;-7.60;99.90
41694;DHT22;27377;50.666;9.150;2024-01-10T06:11:52;-7.60;99.90
41694;DHT22;27377;50.666;9.150;2024-01-10T06:14:18;-7.60;99.90
41694;DHT22;27377;50.666;9.150;2024-01-10T06:16:44;-7.60;99.90
41694;DHT22;27377;50.666;9.150;2024-01-10T06:19:10;-7.60;99.90
41694;DHT22;27377;50.666;9.150;2024-01-10T06:21:37;-7.60;99.90
41694;DHT22;27377;50.666;9.150;2024-01-10T06:24:03;-7.60;99.90
41694;DHT22;27377;50.666;9.150;2024-01-10T06:26:29;-7.60;99.90
41694;DHT22;27377;50.666;9.150;2024-01-10T06:28:54;-7.60;99.90
41694;DHT22;27377;50.666;9.150;2024-01-10T06:31:20;-7.60;99.90
41694;DHT22;27377;50.666;9.150;2024-01-10T06:33:45;-7.60;99.90
41694;DHT22;27377;50.666;9.150;2024-01-10T06:36:11;-7.60;99.90
41694;DHT22;27377;50.666;9.150;2024-01-10T06:38:38;-7.60;99.90
41694;DHT22;27377;50.666;9.150;2024-01-10T06:41:08;-7.60;99.90
41694;DHT22;27377;50.666;9.150;2024-01-10T06:43:34;-7.50;99.90
41694;DHT22;27377;50.666;9.150;2024-01-10T06:46:00;-7.50;99.90
41694;DHT22;27377;50.666;9.150;2024-01-10T06:48:25;-7.30;99.90
41694;DHT22;27377;50.666;9.150;2024-01-10T06:50:51;-7.30;99.90
41694;DHT22;27377;50.666;9.150;2024-01-10T06:53:20;-7.20;99.90
41694;DHT22;27377;50.666;9.150;2024-01-10T06:55:45;-7.20;99.90
41694;DHT22;27377;50.666;9.150;2024-01-10T06:58:11;-7.20;99.90
41694;DHT22;27377;50.666;9.150;2024-01-10T07:00:42;-7.10;99.90
41694;DHT22;27377;50.666;9.150;2024-01-10T07:03:08;-7.10;99.90
41694;DHT22;27377;50.666;9.150;2024-01-10T07:05:34;-7.10;99.90
41694;DHT22;27377;50.666;9.150;2024-01-10T07:08:00;-7.20;99.90
41694;DHT22;27377;50.666;9.150;2024-01-10T07:10:30;-7.20;99.90
41694;DHT22;27377;50.666;9.150;2024-01-10T07:12:57;-7.20;99.90
41694;DHT22;27377;50.666;9.150;2024-01-10T07:15:23;-7.20;99.90
41694;DHT22;27377;50.666;9.150;2024-01-10T07:17:49;-7.20;99.90
41694;DHT22;27377;50.666;9.150;2024-01-10T07:20:15;-7.10;99.90
41694;DHT22;27377;50.666;9.150;2024-01-10T07:22:41;-7.10;99.90
41694;DHT22;27377;50.666;9.150;2024-01-10T07:25:12;-7.10;99.90
41694;DHT22;27377;50.666;9.150;2024-01-10T07:27:45;-7.20;99.90
41694;DHT22;27377;50.666;9.150;2024-01-10T07:30:14;-7.10;99.90
41694;DHT22;27377;50.666;9.150;2024-01-10T07:32:41;-7.10;99.90
41694;DHT22;27377;50.666;9.150;2024-01-10T07:35:07;-7.10;99.90
41694;DHT22;27377;50.666;9.150;2024-01-10T07:37:43;-7.20;99.90
41694;DHT22;27377;50.666;9.150;2024-01-10T07:40:10;-7.30;99.90
41694;DHT22;27377;50.666;9.150;2024-01-10T07:42:38;-7.30;99.90
41694;DHT22;27377;50.666;9.150;2024-01-10T07:45:05;-7.30;99.90
41694;DHT22;27377;50.666;9.150;2024-01-10T07:47:39;-7.20;99.90
41694;DHT22;27377;50.666;9.150;2024-01-10T07:50:09;-7.20;99.90
41694;DHT22;27377;50.666;9.150;2024-01-10T07:52:35;-7.20;99.90
41694;DHT22;27377;50.666;9.150;2024-01-10T07:55:08;-7.10;99.90
41694;DHT22;27377;50.666;9.150;2024-01-10T07:57:34;-7.10;99.90
41694;DHT22;27377;50.666;9.150;2024-01-10T08:00:00;-7.00;99.90
41694;DHT22;27377;50.666;9.150;2024-01-10T08:02:26;-7.10;99.90
41694;DHT22;27377;50.666;9.150;2024-01-10T08:04:52;-7.00;99.90
41694;DHT22;27377;50.666;9.150;2024-01-10T08:07:18;-7.00;99.90
41694;DHT22;27377;50.666;9.150;2024-01-10T08:09:48;-7.00;99.90
41694;DHT22;27377;50.666;9.150;2024-01-10T08:12:13;-7.00;99.90
41694;DHT22;27377;50.666;9.150;2024-01-10T08:14:39;-7.00;99.90
41694;DHT22;27377;50.666;9.150;2024-01-10T08:17:05;-6.90;99.90
41694;DHT22;27377;50.666;9.150;2024-01-10T08:19:31;-6.90;99.90
41694;DHT22;27377;50.666;9.150;2024-01-10T08:21:57;-6.90;99.90
41694;DHT22;27377;50.666;9.150;2024-01-10T08:24:25;-6.80;99.90
41694;DHT22;27377;50.666;9.150;2024-01-10T08:26:51;-6.80;99.90
41694;DHT22;27377;50.666;9.150;2024-01-10T08:29:19;-6.80;99.90
41694;DHT22;27377;50.666;9.150;2024-01-10T08:31:46;-6.80;99.90
41694;DHT22;27377;50.666;9.150;2024-01-10T08:34:17;-6.70;99.90
41694;DHT22;27377;50.666;9.150;2024-01-10T08:36:43;-6.70;99.90
41694;DHT22;27377;50.666;9.150;2024-01-10T08:39:09;-6.60;99.90
41694;DHT22;27377;50.666;9.150;2024-01-10T08:41:36;-6.60;99.90
41694;DHT22;27377;50.666;9.150;2024-01-10T08:44:08;-6.60;99.90
41694;DHT22;27377;50.666;9.150;2024-01-10T08:46:33;-6.60;99.90
41694;DHT22;27377;50.666;9.150;2024-01-10T08:48:59;-6.60;99.90
41694;DHT22;27377;50.666;9.150;2024-01-10T08:51:24;-6.50;99.90
41694;DHT22;27377;50.666;9.150;2024-01-10T08:53:50;-6.50;99.90
41694;DHT22;27377;50.666;9.150;2024-01-10T08:56:15;-6.50;99.90
41694;DHT22;27377;50.666;9.150;2024-01-10T08:58:44;-6.40;99.90
41694;DHT22;27377;50.666;9.150;2024-01-10T09:01:10;-6.40;99.90
41694;DHT22;27377;50.666;9.150;2024-01-10T09:03:36;-6.40;99.90
41694;DHT22;27377;50.666;9.150;2024-01-10T09:06:03;-6.30;99.90
41694;DHT22;27377;50.666;9.150;2024-01-10T09:08:33;-6.30;99.90
41694;DHT22;27377;50.666;9.150;2024-01-10T09:11:02;-6.20;99.90
41694;DHT22;27377;50.666;9.150;2024-01-10T09:13:31;-6.20;99.90
41694;DHT22;27377;50.666;9.150;2024-01-10T09:16:04;-6.20;99.90
41694;DHT22;27377;50.666;9.150;2024-01-10T09:18:30;-6.10;99.90
41694;DHT22;27377;50.666;9.150;2024-01-10T09:20:55;-6.10;99.90
41694;DHT22;27377;50.666;9.150;2024-01-10T09:23:21;-6.10;99.90
41694;DHT22;27377;50.666;9.150;2024-01-10T09:25:47;-6.10;99.90
41694;DHT22;27377;50.666;9.150;2024-01-10T09:28:15;-6.00;99.90
41694;DHT22;27377;50.666;9.150;2024-01-10T09:30:41;-5.90;99.90
41694;DHT22;27377;50.666;9.150;2024-01-10T09:33:09;-5.90;99.90
41694;DHT22;27377;50.666;9.150;2024-01-10T09:35:35;-6.00;99.90
41694;DHT22;27377;50.666;9.150;2024-01-10T09:38:01;-5.90;99.90
41694;DHT22;27377;50.666;9.150;2024-01-10T09:40:26;-5.80;99.90
41694;DHT22;27377;50.666;9.150;2024-01-10T09:42:54;-5.80;99.90
41694;DHT22;27377;50.666;9.150;2024-01-10T09:45:20;-5.70;99.90
41694;DHT22;27377;50.666;9.150;2024-01-10T09:47:52;-5.70;99.90
41694;DHT22;27377;50.666;9.150;2024-01-10T09:50:19;-5.70;99.90
41694;DHT22;27377;50.666;9.150;2024-01-10T09:52:51;-5.60;99.90
41694;DHT22;27377;50.666;9.150;2024-01-10T09:55:18;-5.60;99.90
41694;DHT22;27377;50.666;9.150;2024-01-10T09:57:45;-5.50;99.90
41694;DHT22;27377;50.666;9.150;2024-01-10T10:00:11;-5.50;99.90
41694;DHT22;27377;50.666;9.150;2024-01-10T10:02:39;-5.40;99.90
41694;DHT22;27377;50.666;9.150;2024-01-10T10:05:13;-5.40;99.90
41694;DHT22;27377;50.666;9.150;2024-01-10T10:07:46;-5.30;99.90
41694;DHT22;27377;50.666;9.150;2024-01-10T10:10:12;-5.30;99.90
41694;DHT22;27377;50.666;9.150;2024-01-10T10:12:44;-5.20;99.90
41694;DHT22;27377;50.666;9.150;2024-01-10T10:15:14;-5.10;99.90
41694;DHT22;27377;50.666;9.150;2024-01-10T10:17:41;-5.10;99.90
41694;DHT22;27377;50.666;9.150;2024-01-10T10:20:20;-5.00;99.90
41694;DHT22;27377;50.666;9.150;2024-01-10T10:25:35;-4.90;99.90
41694;DHT22;27377;50.666;9.150;2024-01-10T10:28:02;-4.90;99.90
41694;DHT22;27377;50.666;9.150;2024-01-10T10:30:28;-4.80;99.90
41694;DHT22;27377;50.666;9.150;2024-01-10T10:32:55;-4.80;99.90
41694;DHT22;27377;50.666;9.150;2024-01-10T10:35:20;-4.70;99.90
41694;DHT22;27377;50.666;9.150;2024-01-10T10:37:48;-4.70;99.90
41694;DHT22;27377;50.666;9.150;2024-01-10T10:40:15;-4.60;99.90
41694;DHT22;27377;50.666;9.150;2024-01-10T10:42:45;-4.50;99.90
41694;DHT22;27377;50.666;9.150;2024-01-10T10:45:16;-4.50;99.90
41694;DHT22;27377;50.666;9.150;2024-01-10T10:47:46;-4.50;99.90
41694;DHT22;27377;50.666;9.150;2024-01-10T10:50:21;-4.40;99.90
41694;DHT22;27377;50.666;9.150;2024-01-10T10:52:48;-4.30;99.90
41694;DHT22;27377;50.666;9.150;2024-01-10T10:55:18;-4.30;99.90
41694;DHT22;27377;50.666;9.150;2024-01-10T10:57:48;-4.20;99.90
41694;DHT22;27377;50.666;9.150;2024-01-10T11:00:17;-4.20;99.90
41694;DHT22;27377;50.666;9.150;2024-01-10T11:02:44;-4.20;99.90
41694;DHT22;27377;50.666;9.150;2024-01-10T11:05:10;-4.10;99.90
41694;DHT22;27377;50.666;9.150;2024-01-10T11:07:40;-4.10;99.90
41694;DHT22;27377;50.666;9.150;2024-01-10T11:10:09;-4.10;99.90
41694;DHT22;27377;50.666;9.150;2024-01-10T11:16:21;-4.00;99.90
41694;DHT22;27377;50.666;9.150;2024-01-10T11:22:33;-3.90;99.90
41694;DHT22;27377;50.666;9.150;2024-01-10T11:25:03;-3.90;99.90
41694;DHT22;27377;50.666;9.150;2024-01-10T11:27:30;-3.80;99.90
41694;DHT22;27377;50.666;9.150;2024-01-10T11:29:55;-3.80;99.90
41694;DHT22;27377;50.666;9.150;2024-01-10T11:32:22;-3.80;99.90
41694;DHT22;27377;50.666;9.150;2024-01-10T11:34:57;-3.70;99.90
41694;DHT22;27377;50.666;9.150;2024-01-10T11:37:27;-3.70;99.90
41694;DHT22;27377;50.666;9.150;2024-01-10T11:39:53;-3.70;99.90
41694;DHT22;27377;50.666;9.150;2024-01-10T11:42:23;-3.60;99.90
41694;DHT22;27377;50.666;9.150;2024-01-10T11:44:50;-3.60;99.90
41694;DHT22;27377;50.666;9.150;2024-01-10T11:47:17;-3.60;99.90
41694;DHT22;27377;50.666;9.150;2024-01-10T11:49:57;-3.60;99.90
41694;DHT22;27377;50.666;9.150;2024-01-10T11:52:26;-3.50;99.90
41694;DHT22;27377;50.666;9.150;2024-01-10T11:55:47;-3.50;99.90
41694;DHT22;27377;50.666;9.150;2024-01-10T11:58:13;-3.50;99.90
41694;DHT22;27377;50.666;9.150;2024-01-10T12:00:40;-3.40;99.90
41694;DHT22;27377;50.666;9.150;2024-01-10T12:03:07;-3.40;99.90
41694;DHT22;27377;50.666;9.150;2024-01-10T12:05:34;-3.40;99.90
41694;DHT22;27377;50.666;9.150;2024-01-10T12:08:00;-3.40;99.90
41694;DHT22;27377;50.666;9.150;2024-01-10T12:10:26;-3.30;99.90
41694;DHT22;27377;50.666;9.150;2024-01-10T12:12:52;-3.30;99.90
41694;DHT22;27377;50.666;9.150;2024-01-10T12:15:20;-3.30;99.90
41694;DHT22;27377;50.666;9.150;2024-01-10T12:17:46;-3.30;99.90
41694;DHT22;27377;50.666;9.150;2024-01-10T12:20:11;-3.30;99.90
41694;DHT22;27377;50.666;9.150;2024-01-10T12:22:37;-3.20;99.90
41694;DHT22;27377;50.666;9.150;2024-01-10T12:25:06;-3.20;99.90
41694;DHT22;27377;50.666;9.150;2024-01-10T12:27:32;-3.20;99.90
41694;DHT22;27377;50.666;9.150;2024-01-10T12:30:00;-3.20;99.90
41694;DHT22;27377;50.666;9.150;2024-01-10T12:32:28;-3.20;99.90
41694;DHT22;27377;50.666;9.150;2024-01-10T12:35:04;-3.10;99.90
41694;DHT22;27377;50.666;9.150;2024-01-10T12:37:32;-3.10;99.90
41694;DHT22;27377;50.666;9.150;2024-01-10T12:39:58;-3.10;99.90
41694;DHT22;27377;50.666;9.150;2024-01-10T12:42:23;-3.10;99.90
41694;DHT22;27377;50.666;9.150;2024-01-10T12:44:49;-3.00;99.90
41694;DHT22;27377;50.666;9.150;2024-01-10T12:47:22;-3.10;99.90
41694;DHT22;27377;50.666;9.150;2024-01-10T12:49:49;-3.00;99.90
41694;DHT22;27377;50.666;9.150;2024-01-10T12:52:14;-3.00;99.90
41694;DHT22;27377;50.666;9.150;2024-01-10T12:54:40;-3.00;99.90
41694;DHT22;27377;50.666;9.150;2024-01-10T12:57:06;-3.00;99.90
41694;DHT22;27377;50.666;9.150;2024-01-10T12:59:34;-3.00;99.90
41694;DHT22;27377;50.666;9.150;2024-01-10T13:02:00;-2.90;99.90
41694;DHT22;27377;50.666;9.150;2024-01-10T13:04:26;-2.90;99.90
41694;DHT22;27377;50.666;9.150;2024-01-10T13:06:52;-2.90;99.90
41694;DHT22;27377;50.666;9.150;2024-01-10T13:09:17;-2.80;99.90
41694;DHT22;27377;50.666;9.150;2024-01-10T13:11:43;-2.80;99.90
41694;DHT22;27377;50.666;9.150;2024-01-10T13:14:11;-2.80;99.90
41694;DHT22;27377;50.666;9.150;2024-01-10T13:16:36;-2.80;99.90
41694;DHT22;27377;50.666;9.150;2024-01-10T13:19:02;-2.70;99.90
41694;DHT22;27377;50.666;9.150;2024-01-10T13:21:28;-2.70;99.90
41694;DHT22;27377;50.666;9.150;2024-01-10T13:23:53;-2.70;99.90
41694;DHT22;27377;50.666;9.150;2024-01-10T13:26:19;-2.70;99.90
41694;DHT22;27377;50.666;9.150;2024-01-10T13:28:44;-2.60;99.90
41694;DHT22;27377;50.666;9.150;2024-01-10T13:31:10;-2.60;99.90
41694;DHT22;27377;50.666;9.150;2024-01-10T13:33:36;-2.60;99.90
41694;DHT22;27377;50.666;9.150;2024-01-10T13:36:03;-2.60;99.90
41694;DHT22;27377;50.666;9.150;2024-01-10T13:38:30;-2.60;99.90
41694;DHT22;27377;50.666;9.150;2024-01-10T13:40:56;-2.60;99.90
41694;DHT22;27377;50.666;9.150;2024-01-10T13:43:21;-2.60;99.90
41694;DHT22;27377;50.666;9.150;2024-01-10T13:45:47;-2.50;99.90
41694;DHT22;27377;50.666;9.150;2024-01-10T13:48:13;-2.60;99.90
41694;DHT22;27377;50.666;9.150;2024-01-10T13:50:38;-2.60;99.90
41694;DHT22;27377;50.666;9.150;2024-01-10T13:53:04;-2.60;99.90
41694;DHT22;27377;50.666;9.150;2024-01-10T13:55:31;-2.50;99.90
41694;DHT22;27377;50.666;9.150;2024-01-10T13:57:56;-2.50;99.90
41694;DHT22;27377;50.666;9.150;2024-01-10T14:00:22;-2.50;99.90
41694;DHT22;27377;50.666;9.150;2024-01-10T14:02:48;-2.50;99.90
41694;DHT22;27377;50.666;9.150;2024-01-10T14:05:14;-2.40;99.90
41694;DHT22;27377;50.666;9.150;2024-01-10T14:07:40;-2.50;99.90
41694;DHT22;27377;50.666;9.150;2024-01-10T14:10:09;-2.50;99.90
41694;DHT22;27377;50.666;9.150;2024-01-10T14:12:36;-2.40;99.90
41694;DHT22;27377;50.666;9.150;2024-01-10T14:15:02;-2.40;99.90
41694;DHT22;27377;50.666;9.150;2024-01-10T14:17:27;-2.40;99.90
41694;DHT22;27377;50.666;9.150;2024-01-10T14:19:53;-2.40;99.90
41694;DHT22;27377;50.666;9.150;2024-01-10T14:22:19;-2.40;99.90
41694;DHT22;27377;50.666;9.150;2024-01-10T14:24:45;-2.40;99.90
41694;DHT22;27377;50.666;9.150;2024-01-10T14:27:10;-2.40;99.90
41694;DHT22;27377;50.666;9.150;2024-01-10T14:29:36;-2.40;99.90
41694;DHT22;27377;50.666;9.150;2024-01-10T14:32:02;-2.30;99.90
41694;DHT22;27377;50.666;9.150;2024-01-10T14:34:29;-2.40;99.90
41694;DHT22;27377;50.666;9.150;2024-01-10T14:36:54;-2.30;99.90
41694;DHT22;27377;50.666;9.150;2024-01-10T14:39:20;-2.30;99.90
41694;DHT22;27377;50.666;9.150;2024-01-10T14:41:46;-2.30;99.90
41694;DHT22;27377;50.666;9.150;2024-01-10T14:44:11;-2.30;99.90
41694;DHT22;27377;50.666;9.150;2024-01-10T14:46:37;-2.30;99.90
41694;DHT22;27377;50.666;9.150;2024-01-10T14:49:03;-2.30;99.90
41694;DHT22;27377;50.666;9.150;2024-01-10T14:51:29;-2.30;99.90
41694;DHT22;27377;50.666;9.150;2024-01-10T14:53:55;-2.30;99.90
41694;DHT22;27377;50.666;9.150;2024-01-10T14:56:20;-2.30;99.90
41694;DHT22;27377;50.666;9.150;2024-01-10T14:58:46;-2.30;99.90
41694;DHT22;27377;50.666;9.150;2024-01-10T15:01:12;-2.40;99.90
41694;DHT22;27377;50.666;9.150;2024-01-10T15:03:37;-2.40;99.90
41694;DHT22;27377;50.666;9.150;2024-01-10T15:06:06;-2.40;99.90
41694;DHT22;27377;50.666;9.150;2024-01-10T15:08:32;-2.40;99.90
41694;DHT22;27377;50.666;9.150;2024-01-10T15:10:59;-2.40;99.90
41694;DHT22;27377;50.666;9.150;2024-01-10T15:13:25;-2.40;99.90
41694;DHT22;27377;50.666;9.150;2024-01-10T15:15:50;-2.40;99.90
41694;DHT22;27377;50.666;9.150;2024-01-10T15:18:16;-2.50;99.90
41694;DHT22;27377;50.666;9.150;2024-01-10T15:20:41;-2.50;99.90
41694;DHT22;27377;50.666;9.150;2024-01-10T15:23:08;-2.60;99.90
41694;DHT22;27377;50.666;9.150;2024-01-10T15:25:34;-2.50;99.90
41694;DHT22;27377;50.666;9.150;2024-01-10T15:28:01;-2.60;99.90
41694;DHT22;27377;50.666;9.150;2024-01-10T15:30:27;-2.60;99.90
41694;DHT22;27377;50.666;9.150;2024-01-10T15:32:52;-2.60;99.90
41694;DHT22;27377;50.666;9.150;2024-01-10T15:35:18;-2.60;99.90
41694;DHT22;27377;50.666;9.150;2024-01-10T15:37:44;-2.60;99.90
41694;DHT22;27377;50.666;9.150;2024-01-10T15:40:11;-2.60;99.90
41694;DHT22;27377;50.666;9.150;2024-01-10T15:42:45;-2.60;99.90
41694;DHT22;27377;50.666;9.150;2024-01-10T15:45:11;-2.70;99.90
41694;DHT22;27377;50.666;9.150;2024-01-10T15:47:37;-2.70;99.90
41694;DHT22;27377;50.666;9.150;2024-01-10T15:50:03;-2.80;99.90
41694;DHT22;27377;50.666;9.150;2024-01-10T15:52:29;-2.80;99.90